Aeroporto :







RITROVATECI SU...

 
LOGIN :

Iscrizione | Disclaimer

   EN    FR    IT 

 









Sommario :    VFR   VFR Marginale   IFR   IFR Intensivo   IFR Molto Intensivo
Visibilità : 
Base nubi : 
>= 8 km
>= 3000ft
5 / 8 km
1000 / 3000 ft
1500m / 5 km
500 / 1000 ft
800 / 1500m
200 / 500 ft
< 800m
< 200 ft
Simboli :   Temporali  Nebbia  Neve Forte  Precipitazioni Forti  Vento > 20 kt






- Altitudine del aeroporto : 26 ft
- Codice IATA : CAY


SOCA - Rochambeau

ULTIMO METAR :
  • 260100Z AUTO 24002KT CAVOK 25/25 Q1011 NOSIG

METARs OBSOLETI :
  • 260030Z AUTO 22002KT 9999 FEW019 25/25 Q1011 NOSIG
  • 260000Z AUTO 00000KT CAVOK 25/25 Q1011 NOSIG
  • 252330Z AUTO VRB01KT CAVOK 26/25 Q1011 NOSIG
  • 252300Z AUTO VRB02KT 9999 FEW019 27/25 Q1010 NOSIG
  • 252230Z AUTO 09002KT 9999 ///TCU 27/25 Q1010 BECMG FEW020

TAF TAF SOCA
Valido dal 26 a 00 ore il 27 a 00 ore UTC


252200Z 2600/2624 VRB02KT 9999 FEW020
PROB30
TEMPO 2606/2612 SHRA FEW012TCU SCT015
FM261400 07010KT 9999 SCT030
FIR SOOO / Sudamerica



MetMap, La meteo Aeronautica in un colpo d'occhio ! - Copyright ORBIFLY Dicembre 2007 - Disclaimer

ORBIFLY MET'MAP TEAM :

Programmazione e sviluppo : Alexandra Zaïnal
Concezione : Baudouin d'Aumeries
Aiuto per la programmazione : Marc-Olivier Méhu
Supporto tecnico e logistico : Manuel Goepfert
Aiuto per la traduzione : Arnaldo La Scala

Contatto : metmap@orbifly.com




FONTI E CREDITI :

   NOAA